createdAt,value
2022-12-08T00:00:24.893Z,2.56
2022-12-08T00:03:11.529Z,2.56
2022-12-08T00:06:04.982Z,2.58
2022-12-08T00:08:54.629Z,2.63
2022-12-08T00:11:26.114Z,2.71
2022-12-08T00:13:57.576Z,2.78
2022-12-08T00:16:29.067Z,2.84
2022-12-08T00:19:00.602Z,2.89
2022-12-08T00:21:32.413Z,2.93
2022-12-08T00:24:03.925Z,2.95
2022-12-08T00:26:35.412Z,2.95
2022-12-08T00:29:07.019Z,2.93
2022-12-08T00:31:38.836Z,2.91
2022-12-08T00:34:10.411Z,2.87
2022-12-08T00:36:42.041Z,2.86
2022-12-08T00:39:14.692Z,2.83
2022-12-08T00:42:04.391Z,2.77
2022-12-08T00:44:35.865Z,2.76
2022-12-08T00:47:07.895Z,2.80
2022-12-08T00:49:39.576Z,2.88
2022-12-08T00:52:12.613Z,2.96
2022-12-08T00:54:44.128Z,3.00
2022-12-08T00:57:15.667Z,3.04
2022-12-08T00:59:47.103Z,3.07
2022-12-08T01:02:18.596Z,3.04
2022-12-08T01:04:50.120Z,3.05
2022-12-08T01:07:21.668Z,3.06
2022-12-08T01:09:53.651Z,3.04
2022-12-08T01:12:25.231Z,3.02
2022-12-08T01:15:00.715Z,2.99
2022-12-08T01:17:33.926Z,2.97
2022-12-08T01:20:06.906Z,2.95
2022-12-08T01:22:38.588Z,2.92
2022-12-08T01:25:10.969Z,2.93
2022-12-08T01:27:42.427Z,2.96
2022-12-08T01:30:15.433Z,2.99
2022-12-08T01:32:47.350Z,3.02
2022-12-08T01:35:19.265Z,3.08
2022-12-08T01:37:52.273Z,3.08
2022-12-08T01:40:23.823Z,3.07
2022-12-08T01:42:55.300Z,3.08
2022-12-08T01:45:29.578Z,3.06
2022-12-08T01:48:05.899Z,3.04
2022-12-08T01:50:39.402Z,3.01
2022-12-08T01:53:14.710Z,2.98
2022-12-08T01:55:51.149Z,2.93
2022-12-08T01:58:27.997Z,2.90
2022-12-08T02:00:59.554Z,2.89
2022-12-08T02:03:36.505Z,2.87
2022-12-08T02:06:09.747Z,2.86
2022-12-08T02:08:43.071Z,2.85
2022-12-08T02:11:15.252Z,2.87
2022-12-08T02:13:48.585Z,2.89
2022-12-08T02:16:34.092Z,2.96
2022-12-08T02:19:31.852Z,3.01
2022-12-08T02:22:12.213Z,3.03
2022-12-08T02:24:53.691Z,3.05
2022-12-08T02:27:42.030Z,3.06
2022-12-08T02:30:22.004Z,3.03
2022-12-08T02:33:32.571Z,2.99
2022-12-08T02:36:09.436Z,2.95
2022-12-08T02:38:57.391Z,2.90
2022-12-08T02:41:39.535Z,2.85
2022-12-08T02:44:18.919Z,2.82
2022-12-08T02:46:54.563Z,2.80
2022-12-08T02:49:31.162Z,2.76
2022-12-08T02:52:30.284Z,2.72
2022-12-08T02:55:07.398Z,2.69
2022-12-08T02:57:50.358Z,2.73
2022-12-08T03:00:25.496Z,2.75
2022-12-08T03:03:10.487Z,2.75
2022-12-08T03:06:02.009Z,2.76
2022-12-08T03:08:43.157Z,2.75
2022-12-08T03:11:21.189Z,2.75
2022-12-08T03:13:55.800Z,2.74
2022-12-08T03:16:30.333Z,2.73
2022-12-08T03:19:07.621Z,2.74
2022-12-08T03:21:40.948Z,2.73
2022-12-08T03:24:14.117Z,2.70
2022-12-08T03:26:51.892Z,2.69
2022-12-08T03:29:23.952Z,2.69
2022-12-08T03:31:58.695Z,2.66
2022-12-08T03:34:31.434Z,2.61
2022-12-08T03:37:04.992Z,2.61
2022-12-08T03:39:34.936Z,2.61
2022-12-08T03:42:06.527Z,2.65
2022-12-08T03:44:38.024Z,2.71
2022-12-08T03:47:09.606Z,2.77
2022-12-08T03:49:41.164Z,2.86
2022-12-08T03:52:12.752Z,2.95
2022-12-08T03:54:44.364Z,2.97
2022-12-08T03:57:16.138Z,2.97
2022-12-08T03:59:47.670Z,2.91
2022-12-08T04:02:19.203Z,2.88
2022-12-08T04:04:50.815Z,2.91
2022-12-08T04:07:22.310Z,2.93
2022-12-08T04:09:53.817Z,2.93
2022-12-08T04:12:25.316Z,2.92
2022-12-08T04:14:56.802Z,2.89
2022-12-08T04:17:28.376Z,2.85
2022-12-08T04:20:00.042Z,2.81
2022-12-08T04:22:31.769Z,2.74
2022-12-08T04:25:03.549Z,2.72
2022-12-08T04:27:35.063Z,2.73
2022-12-08T04:30:08.061Z,2.74
2022-12-08T04:32:44.237Z,2.79
2022-12-08T04:35:18.834Z,2.85
2022-12-08T04:37:50.345Z,2.88
2022-12-08T04:40:21.985Z,2.94
2022-12-08T04:42:53.469Z,2.97
2022-12-08T04:45:25.072Z,2.97
2022-12-08T04:47:56.555Z,2.95
2022-12-08T04:50:28.625Z,2.94
2022-12-08T04:53:00.196Z,2.88
2022-12-08T04:55:31.733Z,2.80
2022-12-08T04:58:03.195Z,2.75
2022-12-08T05:00:34.720Z,2.72
2022-12-08T05:03:06.234Z,2.65
2022-12-08T05:05:37.796Z,2.56
2022-12-08T05:08:10.049Z,2.50
2022-12-08T05:10:41.938Z,2.44
2022-12-08T05:13:13.506Z,2.36
2022-12-08T05:15:45.090Z,2.33
2022-12-08T05:18:16.584Z,2.31
2022-12-08T05:20:48.113Z,2.31
2022-12-08T05:23:19.551Z,2.33
2022-12-08T05:25:51.052Z,2.37
2022-12-08T05:31:16.293Z,2.51
2022-12-08T05:33:50.024Z,2.57
2022-12-08T05:36:22.114Z,2.55
2022-12-08T05:38:53.627Z,2.55
2022-12-08T05:41:25.355Z,2.51
2022-12-08T05:43:56.829Z,2.51
2022-12-08T05:46:28.518Z,2.49
2022-12-08T05:49:01.876Z,2.42
2022-12-08T05:51:33.429Z,2.36
2022-12-08T05:54:04.949Z,2.29
2022-12-08T05:56:36.519Z,2.25
2022-12-08T05:59:09.641Z,2.24
2022-12-08T06:01:42.432Z,2.23
2022-12-08T06:04:14.015Z,2.20
2022-12-08T06:06:45.557Z,2.16
2022-12-08T06:09:17.065Z,2.11
2022-12-08T06:11:48.681Z,2.10
2022-12-08T06:14:20.421Z,2.11
2022-12-08T06:16:52.071Z,2.13
2022-12-08T06:19:23.635Z,2.24
2022-12-08T06:21:55.109Z,2.31
2022-12-08T06:24:26.883Z,2.42
2022-12-08T06:26:58.440Z,2.49
2022-12-08T06:29:29.917Z,2.55
2022-12-08T06:32:01.582Z,2.58
2022-12-08T06:34:33.225Z,2.58
2022-12-08T06:37:04.672Z,2.53
2022-12-08T06:39:36.204Z,2.42
2022-12-08T06:42:25.338Z,2.37
2022-12-08T06:44:57.097Z,2.35
2022-12-08T06:47:28.721Z,2.34
2022-12-08T06:50:00.250Z,2.31
2022-12-08T06:52:31.912Z,2.28
2022-12-08T06:55:03.419Z,2.27
2022-12-08T06:57:35.037Z,2.26
2022-12-08T07:00:08.395Z,2.28
2022-12-08T07:02:40.133Z,2.34
2022-12-08T07:05:11.760Z,2.41
2022-12-08T07:07:43.483Z,2.51
2022-12-08T07:10:15.073Z,2.62
2022-12-08T07:12:46.638Z,2.71
2022-12-08T07:15:18.648Z,2.81
2022-12-08T07:17:56.288Z,2.91
2022-12-08T07:20:30.927Z,3.02
2022-12-08T07:23:02.482Z,3.12
2022-12-08T07:25:34.101Z,3.12
2022-12-08T07:28:10.600Z,3.08
2022-12-08T07:30:42.307Z,3.03
2022-12-08T07:33:13.958Z,3.00
2022-12-08T07:35:49.283Z,2.97
2022-12-08T07:38:21.107Z,2.92
2022-12-08T07:40:53.219Z,2.92
2022-12-08T07:43:25.409Z,2.95
2022-12-08T07:45:57.022Z,2.99
2022-12-08T07:48:28.893Z,3.04
2022-12-08T07:51:05.086Z,3.08
2022-12-08T07:53:36.636Z,3.15
2022-12-08T07:56:11.150Z,3.24
2022-12-08T07:58:45.768Z,3.35
2022-12-08T08:01:28.414Z,3.48
2022-12-08T08:04:02.385Z,3.60
2022-12-08T08:06:34.956Z,3.72
2022-12-08T08:09:06.743Z,3.82
2022-12-08T08:11:38.496Z,3.88
2022-12-08T08:14:10.060Z,3.93
2022-12-08T08:16:46.621Z,3.93
2022-12-08T08:19:19.097Z,3.89
2022-12-08T08:21:50.609Z,3.90
2022-12-08T08:24:24.093Z,3.87
2022-12-08T08:26:55.644Z,3.90
2022-12-08T08:29:27.486Z,3.94
2022-12-08T08:31:59.172Z,3.98
2022-12-08T08:34:30.817Z,4.05
2022-12-08T08:37:02.491Z,4.11
2022-12-08T08:39:34.061Z,4.12
2022-12-08T08:42:05.684Z,4.17
2022-12-08T08:44:38.853Z,4.24
2022-12-08T08:47:10.443Z,4.32
2022-12-08T08:49:42.323Z,4.41
2022-12-08T08:52:13.890Z,4.43
2022-12-08T08:54:45.487Z,4.49
2022-12-08T08:57:23.642Z,4.50
2022-12-08T08:59:57.091Z,4.51
2022-12-08T09:02:28.640Z,4.56
2022-12-08T09:05:00.317Z,4.54
2022-12-08T09:07:32.241Z,4.51
2022-12-08T09:10:04.453Z,4.54
2022-12-08T09:12:36.147Z,4.65
2022-12-08T09:15:08.943Z,4.75
2022-12-08T09:17:40.502Z,4.71
2022-12-08T09:20:12.669Z,4.66
2022-12-08T09:22:44.260Z,4.69
2022-12-08T09:25:16.245Z,4.75
2022-12-08T09:27:47.835Z,4.73
2022-12-08T09:30:19.744Z,4.68
2022-12-08T09:32:51.254Z,4.66
2022-12-08T09:35:22.866Z,4.65
2022-12-08T09:37:54.404Z,4.60
2022-12-08T09:40:27.761Z,4.58
2022-12-08T09:43:08.145Z,4.53
2022-12-08T09:45:40.480Z,4.57
2022-12-08T09:48:17.363Z,4.63
2022-12-08T09:50:55.201Z,4.78
2022-12-08T09:53:35.260Z,4.95
2022-12-08T09:56:14.466Z,5.11
2022-12-08T09:58:53.489Z,5.29
2022-12-08T10:01:28.924Z,5.38
2022-12-08T10:04:01.391Z,5.45
2022-12-08T10:06:39.765Z,5.51
2022-12-08T10:09:27.882Z,5.52
2022-12-08T10:12:08.876Z,5.53
2022-12-08T10:14:45.437Z,5.52
2022-12-08T10:17:23.004Z,5.48
2022-12-08T10:20:00.580Z,5.44
2022-12-08T10:22:41.282Z,5.42
2022-12-08T10:25:19.753Z,5.45
2022-12-08T10:27:55.155Z,5.48
2022-12-08T10:30:26.882Z,5.39
2022-12-08T10:32:58.403Z,5.26
2022-12-08T10:35:46.260Z,5.19
2022-12-08T10:38:24.360Z,5.19
2022-12-08T10:41:02.073Z,5.17
2022-12-08T10:43:35.310Z,5.12
2022-12-08T10:46:16.076Z,5.07
2022-12-08T10:48:53.626Z,4.98
2022-12-08T10:51:41.188Z,4.91
2022-12-08T10:54:29.056Z,4.86
2022-12-08T10:57:01.026Z,4.84
2022-12-08T10:59:35.715Z,4.82
2022-12-08T11:02:20.380Z,4.78
2022-12-08T11:05:00.211Z,4.72
2022-12-08T11:07:31.969Z,4.68
2022-12-08T11:10:03.916Z,4.64
2022-12-08T11:12:36.664Z,4.63
2022-12-08T11:15:15.442Z,4.59
2022-12-08T11:17:57.388Z,4.57
2022-12-08T11:20:41.728Z,4.61
2022-12-08T11:23:25.232Z,4.63
2022-12-08T11:26:02.386Z,4.69
2022-12-08T11:28:33.995Z,4.70
2022-12-08T11:31:15.908Z,4.73
2022-12-08T11:33:48.392Z,4.79
2022-12-08T11:36:21.543Z,4.77
2022-12-08T11:38:56.768Z,4.74
2022-12-08T11:41:31.064Z,4.77
2022-12-08T11:44:14.561Z,4.76
2022-12-08T11:46:52.005Z,4.75
2022-12-08T11:49:26.861Z,4.77
2022-12-08T11:52:05.267Z,4.83
2022-12-08T11:54:41.077Z,4.82
2022-12-08T11:57:16.457Z,4.80
2022-12-08T11:59:50.921Z,4.77
2022-12-08T12:02:25.223Z,4.80
2022-12-08T12:05:02.074Z,4.82
2022-12-08T12:08:04.663Z,4.79
2022-12-08T12:11:00.983Z,4.75
2022-12-08T12:13:56.361Z,4.77
2022-12-08T12:16:56.738Z,4.83
2022-12-08T12:19:31.067Z,4.86
2022-12-08T12:22:11.662Z,4.86
2022-12-08T12:24:48.807Z,4.92
2022-12-08T12:27:29.232Z,4.91
2022-12-08T12:30:03.923Z,4.89
2022-12-08T12:32:48.182Z,4.88
2022-12-08T12:35:28.517Z,4.88
2022-12-08T12:38:03.092Z,4.76
2022-12-08T12:40:44.477Z,4.61
2022-12-08T12:43:28.686Z,4.55
2022-12-08T12:46:30.784Z,4.57
2022-12-08T12:49:53.301Z,4.57
2022-12-08T12:52:45.950Z,4.54
2022-12-08T12:55:29.151Z,4.49
2022-12-08T12:58:04.831Z,4.41
2022-12-08T13:00:36.353Z,4.35
2022-12-08T13:03:18.077Z,4.34
2022-12-08T13:05:54.252Z,4.32
2022-12-08T13:08:27.916Z,4.25
2022-12-08T13:11:03.790Z,4.18
2022-12-08T13:13:35.692Z,4.19
2022-12-08T13:16:19.764Z,4.18
2022-12-08T13:18:53.283Z,4.15
2022-12-08T13:21:32.296Z,4.14
2022-12-08T13:24:28.094Z,4.11
2022-12-08T13:27:34.083Z,4.09
2022-12-08T13:30:40.184Z,4.05
2022-12-08T13:33:18.397Z,3.96
2022-12-08T13:36:12.659Z,3.89
2022-12-08T13:38:47.116Z,3.82
2022-12-08T13:41:32.037Z,3.74
2022-12-08T13:45:03.667Z,3.64
2022-12-08T13:59:09.766Z,3.57
2022-12-08T14:01:46.762Z,3.64
2022-12-08T14:07:12.311Z,3.71
2022-12-08T14:09:44.611Z,3.72
2022-12-08T14:12:22.751Z,3.76
2022-12-08T14:15:04.209Z,3.78
2022-12-08T14:17:36.611Z,3.78
2022-12-08T14:20:24.726Z,3.80
2022-12-08T14:22:57.165Z,3.78
2022-12-08T14:25:29.777Z,3.76
2022-12-08T14:28:04.953Z,3.71
2022-12-08T14:30:39.531Z,3.68
2022-12-08T14:33:17.437Z,3.65
2022-12-08T14:35:54.921Z,3.61
2022-12-08T14:38:27.870Z,3.52
2022-12-08T14:41:07.883Z,3.54
2022-12-08T14:43:40.881Z,3.52
2022-12-08T14:46:24.037Z,3.55
2022-12-08T14:48:57.016Z,3.58
2022-12-08T14:51:32.489Z,3.62
2022-12-08T14:54:08.425Z,3.66
2022-12-08T14:56:42.033Z,3.71
2022-12-08T14:59:18.756Z,3.75
2022-12-08T15:01:52.627Z,3.79
2022-12-08T15:04:28.065Z,3.84
2022-12-08T15:07:05.877Z,3.89
2022-12-08T15:09:42.036Z,3.88
2022-12-08T15:12:27.296Z,3.88
2022-12-08T15:15:02.738Z,3.85
2022-12-08T15:17:42.713Z,3.81
2022-12-08T15:23:23.098Z,3.71
2022-12-08T15:25:55.125Z,3.67
2022-12-08T15:28:30.366Z,3.63
2022-12-08T15:31:02.410Z,3.55
2022-12-08T15:33:33.939Z,3.52
2022-12-08T15:36:12.058Z,3.51
2022-12-08T15:38:43.985Z,3.50
2022-12-08T15:41:15.567Z,3.49
2022-12-08T15:43:47.303Z,3.48
2022-12-08T15:46:19.239Z,3.49
2022-12-08T15:48:56.475Z,3.57
2022-12-08T15:51:31.040Z,3.61
2022-12-08T15:54:02.543Z,3.60
2022-12-08T15:56:34.448Z,3.60
2022-12-08T15:59:11.286Z,3.58
2022-12-08T16:01:43.258Z,3.57
2022-12-08T16:07:21.967Z,3.46
2022-12-08T16:09:55.306Z,3.33
2022-12-08T16:13:47.901Z,3.21
2022-12-08T16:15:51.616Z,3.13
2022-12-08T16:18:34.213Z,3.13
2022-12-08T16:21:22.865Z,3.11
2022-12-08T16:24:05.981Z,3.05
2022-12-08T16:27:58.085Z,3.11
2022-12-08T16:29:34.262Z,3.16
2022-12-08T16:32:05.996Z,3.16
2022-12-08T16:34:37.660Z,3.18
2022-12-08T16:37:09.999Z,3.22
2022-12-08T16:39:45.765Z,3.25
2022-12-08T16:42:37.513Z,3.26
2022-12-08T16:45:12.245Z,3.20
2022-12-08T16:47:46.069Z,3.12
2022-12-08T16:50:20.518Z,3.07
2022-12-08T16:52:57.550Z,3.01
2022-12-08T16:55:29.452Z,2.96
2022-12-08T16:58:01.132Z,2.95
2022-12-08T17:00:36.724Z,2.93
2022-12-08T17:03:09.501Z,2.92
2022-12-08T17:05:50.616Z,2.98
2022-12-08T17:08:24.116Z,2.98
2022-12-08T17:11:08.238Z,2.97
2022-12-08T17:13:42.300Z,2.95
2022-12-08T17:16:19.262Z,2.89
2022-12-08T17:18:51.277Z,2.82
2022-12-08T17:21:23.268Z,2.80
2022-12-08T17:23:55.851Z,2.80
2022-12-08T17:26:27.398Z,2.80
2022-12-08T17:29:00.904Z,2.76
2022-12-08T17:31:33.840Z,2.74
2022-12-08T17:34:10.242Z,2.73
2022-12-08T17:36:42.171Z,2.74
2022-12-08T17:39:18.437Z,2.80
2022-12-08T17:41:50.675Z,2.87
2022-12-08T17:44:22.758Z,2.88
2022-12-08T17:46:54.245Z,2.94
2022-12-08T17:49:29.561Z,2.96
2022-12-08T17:52:03.224Z,3.01
2022-12-08T17:54:33.567Z,3.07
2022-12-08T17:57:05.507Z,3.07
2022-12-08T17:59:37.077Z,3.00
2022-12-08T18:02:11.316Z,2.98
2022-12-08T18:04:42.887Z,2.99
2022-12-08T18:07:14.416Z,3.00
2022-12-08T18:09:45.930Z,3.00
2022-12-08T18:12:23.241Z,3.02
2022-12-08T18:14:55.279Z,3.05
2022-12-08T18:17:26.816Z,3.07
2022-12-08T18:19:58.480Z,3.06
2022-12-08T18:22:30.133Z,3.07
2022-12-08T18:25:01.730Z,3.07
2022-12-08T18:27:37.303Z,3.07
2022-12-08T18:30:17.951Z,3.06
2022-12-08T18:32:54.197Z,3.06
2022-12-08T18:35:29.006Z,3.10
2022-12-08T18:38:01.109Z,3.18
2022-12-08T18:40:32.729Z,3.28
2022-12-08T18:43:04.554Z,3.38
2022-12-08T18:45:36.997Z,3.50
2022-12-08T18:48:08.788Z,3.63
2022-12-08T18:50:44.778Z,3.72
2022-12-08T18:53:16.271Z,3.81
2022-12-08T18:55:50.906Z,3.86
2022-12-08T18:58:22.405Z,3.87
2022-12-08T19:00:54.003Z,3.84
2022-12-08T19:03:25.621Z,3.80
2022-12-08T19:06:06.226Z,3.80
2022-12-08T19:08:37.945Z,3.75
2022-12-08T19:11:19.977Z,3.70
2022-12-08T19:13:51.584Z,3.64
2022-12-08T19:16:23.672Z,3.59
2022-12-08T19:18:55.215Z,3.57
2022-12-08T19:21:26.781Z,3.54
2022-12-08T19:23:59.885Z,3.50
2022-12-08T19:26:31.758Z,3.46
2022-12-08T19:29:03.733Z,3.43
2022-12-08T19:31:35.315Z,3.44
2022-12-08T19:34:10.807Z,3.45
2022-12-08T19:36:43.252Z,3.49
2022-12-08T19:39:35.586Z,3.54
2022-12-08T19:42:31.411Z,3.60
2022-12-08T19:45:06.312Z,3.68
2022-12-08T19:47:37.957Z,3.81
2022-12-08T19:50:30.010Z,3.89
2022-12-08T19:53:02.186Z,3.92
2022-12-08T19:55:34.340Z,3.96
2022-12-08T19:58:07.003Z,3.97
2022-12-08T20:00:41.450Z,3.90
2022-12-08T20:03:15.091Z,3.87
2022-12-08T20:05:48.626Z,3.81
2022-12-08T20:08:20.257Z,3.76
2022-12-08T20:10:56.066Z,3.70
2022-12-08T20:13:45.600Z,3.67
2022-12-08T20:16:18.041Z,3.64
2022-12-08T20:18:49.644Z,3.60
2022-12-08T20:21:22.009Z,3.56
2022-12-08T20:23:53.736Z,3.52
2022-12-08T20:26:26.589Z,3.48
2022-12-08T20:28:58.198Z,3.47
2022-12-08T20:31:32.071Z,3.45
2022-12-08T20:34:03.853Z,3.49
2022-12-08T20:36:35.439Z,3.52
2022-12-08T20:39:11.639Z,3.58
2022-12-08T20:41:43.645Z,3.66
2022-12-08T20:44:15.227Z,3.74
2022-12-08T20:46:49.627Z,3.86
2022-12-08T20:49:21.511Z,3.96
2022-12-08T20:51:53.248Z,4.03
2022-12-08T20:54:24.708Z,4.08
2022-12-08T20:56:56.380Z,4.06
2022-12-08T20:59:28.367Z,4.02
2022-12-08T21:02:00.447Z,3.98
2022-12-08T21:04:32.581Z,3.94
2022-12-08T21:07:04.567Z,3.88
2022-12-08T21:09:36.627Z,3.81
2022-12-08T21:12:09.343Z,3.72
2022-12-08T21:14:42.445Z,3.67
2022-12-08T21:17:16.455Z,3.62
2022-12-08T21:19:48.224Z,3.57
2022-12-08T21:22:21.092Z,3.51
2022-12-08T21:24:53.263Z,3.43
2022-12-08T21:27:24.895Z,3.40
2022-12-08T21:29:56.530Z,3.42
2022-12-08T21:32:30.646Z,3.45
2022-12-08T21:35:03.003Z,3.50
2022-12-08T21:37:35.469Z,3.55
2022-12-08T21:40:09.715Z,3.60
2022-12-08T21:42:44.588Z,3.68
2022-12-08T21:45:19.087Z,3.80
2022-12-08T21:47:51.627Z,3.86
2022-12-08T21:50:23.423Z,3.92
2022-12-08T21:52:55.064Z,3.96
2022-12-08T21:55:26.926Z,3.98
2022-12-08T21:58:00.978Z,3.97
2022-12-08T22:00:33.547Z,3.88
2022-12-08T22:03:06.113Z,3.81
2022-12-08T22:05:37.882Z,3.74
2022-12-08T22:08:10.174Z,3.70
2022-12-08T22:10:41.956Z,3.65
2022-12-08T22:13:13.637Z,3.61
2022-12-08T22:15:45.290Z,3.57
2022-12-08T22:18:16.949Z,3.53
2022-12-08T22:20:48.753Z,3.45
2022-12-08T22:23:21.321Z,3.39
2022-12-08T22:25:59.339Z,3.34
2022-12-08T22:28:35.835Z,3.37
2022-12-08T22:31:13.088Z,3.42
2022-12-08T22:33:45.573Z,3.47
2022-12-08T22:36:19.846Z,3.54
2022-12-08T22:38:52.527Z,3.62
2022-12-08T22:41:24.530Z,3.73
2022-12-08T22:43:56.220Z,3.81
2022-12-08T22:46:28.938Z,3.77
2022-12-08T22:49:00.841Z,3.77
2022-12-08T22:51:32.694Z,3.73
2022-12-08T22:54:05.554Z,3.68
2022-12-08T22:56:37.274Z,3.66
2022-12-08T22:59:09.830Z,3.66
2022-12-08T23:01:41.320Z,3.63
2022-12-08T23:04:17.708Z,3.60
2022-12-08T23:06:50.291Z,3.56
2022-12-08T23:09:22.309Z,3.52
2022-12-08T23:11:54.204Z,3.48
2022-12-08T23:14:25.801Z,3.39
2022-12-08T23:16:57.464Z,3.37
2022-12-08T23:19:29.153Z,3.36
2022-12-08T23:22:00.676Z,3.36
2022-12-08T23:24:33.413Z,3.39
2022-12-08T23:27:06.061Z,3.42
2022-12-08T23:29:37.960Z,3.50
2022-12-08T23:32:09.659Z,3.53
2022-12-08T23:34:42.238Z,3.60
2022-12-08T23:37:13.925Z,3.65
2022-12-08T23:39:45.643Z,3.68
2022-12-08T23:42:17.217Z,3.69
2022-12-08T23:44:48.951Z,3.64
2022-12-08T23:47:20.841Z,3.61
2022-12-08T23:49:52.639Z,3.56
2022-12-08T23:52:24.379Z,3.55
2022-12-08T23:54:57.116Z,3.53
2022-12-08T23:57:28.729Z,3.51
